You are not logged in, Click here to log in
泰德·史蒂文斯安克拉治國際機場ANC / PANC 美國阿拉斯加安克拉治市中心西南6公里
ICAO: PANC Country: 美國阿拉斯加安克拉治市中心西南6公里
Latitude: 61.1744 Longitude: -149.996
Total Arrivals: 23 Total Departures: 23
Latest Arrival: S7351C (UHPP-PANC)鈺友. 陳 Latest Departure: AC537 (PANC-CYVR)鈺友. 陳
Scenery:
METAR : PANC 110453Z VRB04KT 10SM FEW025 SCT075 SCT110 BKN250 19/11 A2973 RMK AO2 SLP070 CB DSNT NE-SE-SW T01890111

泰德·史蒂文斯安克拉治國際機場ANC